sensor_id;sensor_type;location;lat;lon;timestamp;P1;durP1;ratioP1;P2;durP2;ratioP2
41233;SDS011;26968;42.686;23.352;2023-01-28T00:01:41;15.10;;;9.43;;
41233;SDS011;26968;42.686;23.352;2023-01-28T00:04:07;15.38;;;8.18;;
41233;SDS011;26968;42.686;23.352;2023-01-28T00:06:32;16.08;;;8.35;;
41233;SDS011;26968;42.686;23.352;2023-01-28T00:08:58;17.48;;;8.48;;
41233;SDS011;26968;42.686;23.352;2023-01-28T00:11:23;12.88;;;8.07;;
41233;SDS011;26968;42.686;23.352;2023-01-28T00:13:52;14.50;;;9.05;;
41233;SDS011;26968;42.686;23.352;2023-01-28T00:16:18;12.68;;;8.07;;
41233;SDS011;26968;42.686;23.352;2023-01-28T00:18:44;14.27;;;8.43;;
41233;SDS011;26968;42.686;23.352;2023-01-28T00:21:10;17.70;;;8.73;;
41233;SDS011;26968;42.686;23.352;2023-01-28T00:23:39;12.63;;;8.45;;
41233;SDS011;26968;42.686;23.352;2023-01-28T00:26:14;12.10;;;7.45;;
41233;SDS011;26968;42.686;23.352;2023-01-28T00:28:40;14.43;;;8.80;;
41233;SDS011;26968;42.686;23.352;2023-01-28T00:31:06;14.10;;;7.47;;
41233;SDS011;26968;42.686;23.352;2023-01-28T00:33:33;11.07;;;7.63;;
41233;SDS011;26968;42.686;23.352;2023-01-28T00:36:00;12.23;;;7.53;;
41233;SDS011;26968;42.686;23.352;2023-01-28T00:38:26;14.63;;;8.27;;
41233;SDS011;26968;42.686;23.352;2023-01-28T00:40:52;12.18;;;8.13;;
41233;SDS011;26968;42.686;23.352;2023-01-28T00:43:17;12.95;;;7.25;;
41233;SDS011;26968;42.686;23.352;2023-01-28T00:45:43;11.35;;;6.78;;
41233;SDS011;26968;42.686;23.352;2023-01-28T00:48:08;10.00;;;7.22;;
41233;SDS011;26968;42.686;23.352;2023-01-28T00:50:34;11.80;;;7.65;;
41233;SDS011;26968;42.686;23.352;2023-01-28T00:52:59;12.77;;;7.43;;
41233;SDS011;26968;42.686;23.352;2023-01-28T00:55:25;13.23;;;7.38;;
41233;SDS011;26968;42.686;23.352;2023-01-28T00:57:52;11.68;;;7.60;;
41233;SDS011;26968;42.686;23.352;2023-01-28T01:00:17;15.18;;;7.57;;
41233;SDS011;26968;42.686;23.352;2023-01-28T01:02:45;14.55;;;8.57;;
41233;SDS011;26968;42.686;23.352;2023-01-28T01:05:11;15.70;;;8.55;;
41233;SDS011;26968;42.686;23.352;2023-01-28T01:07:37;15.52;;;9.32;;
41233;SDS011;26968;42.686;23.352;2023-01-28T01:12:37;15.93;;;9.50;;
41233;SDS011;26968;42.686;23.352;2023-01-28T01:15:03;16.17;;;9.02;;
41233;SDS011;26968;42.686;23.352;2023-01-28T01:17:32;16.90;;;9.68;;
41233;SDS011;26968;42.686;23.352;2023-01-28T01:20:00;17.35;;;9.88;;
41233;SDS011;26968;42.686;23.352;2023-01-28T01:22:26;17.05;;;9.65;;
41233;SDS011;26968;42.686;23.352;2023-01-28T01:24:51;15.93;;;9.95;;
41233;SDS011;26968;42.686;23.352;2023-01-28T01:27:16;14.77;;;9.35;;
41233;SDS011;26968;42.686;23.352;2023-01-28T01:29:42;18.98;;;10.57;;
41233;SDS011;26968;42.686;23.352;2023-01-28T01:32:07;17.80;;;11.23;;
41233;SDS011;26968;42.686;23.352;2023-01-28T01:34:33;24.08;;;11.85;;
41233;SDS011;26968;42.686;23.352;2023-01-28T01:36:58;22.40;;;11.10;;
41233;SDS011;26968;42.686;23.352;2023-01-28T01:39:23;17.38;;;10.48;;
41233;SDS011;26968;42.686;23.352;2023-01-28T01:41:49;18.15;;;11.00;;
41233;SDS011;26968;42.686;23.352;2023-01-28T01:47:45;19.20;;;11.57;;
41233;SDS011;26968;42.686;23.352;2023-01-28T01:53:00;15.50;;;9.77;;
41233;SDS011;26968;42.686;23.352;2023-01-28T01:55:30;19.00;;;11.02;;
41233;SDS011;26968;42.686;23.352;2023-01-28T01:57:59;18.77;;;10.73;;
41233;SDS011;26968;42.686;23.352;2023-01-28T02:00:31;16.90;;;10.68;;
41233;SDS011;26968;42.686;23.352;2023-01-28T02:02:56;18.25;;;10.90;;
41233;SDS011;26968;42.686;23.352;2023-01-28T02:05:23;15.90;;;10.32;;
41233;SDS011;26968;42.686;23.352;2023-01-28T02:07:49;18.00;;;10.25;;
41233;SDS011;26968;42.686;23.352;2023-01-28T02:10:38;17.55;;;10.05;;
41233;SDS011;26968;42.686;23.352;2023-01-28T02:13:04;16.58;;;9.65;;
41233;SDS011;26968;42.686;23.352;2023-01-28T02:15:29;15.52;;;9.05;;
41233;SDS011;26968;42.686;23.352;2023-01-28T02:17:54;17.25;;;10.02;;
41233;SDS011;26968;42.686;23.352;2023-01-28T02:20:22;17.48;;;9.95;;
41233;SDS011;26968;42.686;23.352;2023-01-28T02:28:40;18.42;;;9.90;;
41233;SDS011;26968;42.686;23.352;2023-01-28T02:31:18;17.55;;;9.05;;
41233;SDS011;26968;42.686;23.352;2023-01-28T02:36:50;15.57;;;9.30;;
41233;SDS011;26968;42.686;23.352;2023-01-28T02:39:26;14.05;;;9.38;;
41233;SDS011;26968;42.686;23.352;2023-01-28T02:41:56;13.63;;;8.60;;
41233;SDS011;26968;42.686;23.352;2023-01-28T02:44:26;14.70;;;8.27;;
41233;SDS011;26968;42.686;23.352;2023-01-28T02:46:51;14.43;;;9.07;;
41233;SDS011;26968;42.686;23.352;2023-01-28T02:49:47;17.25;;;9.80;;
41233;SDS011;26968;42.686;23.352;2023-01-28T02:58:15;14.10;;;8.68;;
41233;SDS011;26968;42.686;23.352;2023-01-28T03:00:49;15.57;;;9.50;;
41233;SDS011;26968;42.686;23.352;2023-01-28T03:03:34;14.45;;;8.48;;
41233;SDS011;26968;42.686;23.352;2023-01-28T03:06:07;14.05;;;9.00;;
41233;SDS011;26968;42.686;23.352;2023-01-28T03:11:28;14.50;;;8.93;;
41233;SDS011;26968;42.686;23.352;2023-01-28T03:14:15;13.30;;;8.75;;
41233;SDS011;26968;42.686;23.352;2023-01-28T03:17:01;16.00;;;8.60;;
41233;SDS011;26968;42.686;23.352;2023-01-28T03:19:47;14.07;;;8.68;;
41233;SDS011;26968;42.686;23.352;2023-01-28T03:22:32;16.60;;;8.98;;
41233;SDS011;26968;42.686;23.352;2023-01-28T03:25:20;13.98;;;8.90;;
41233;SDS011;26968;42.686;23.352;2023-01-28T03:28:09;13.27;;;8.27;;
41233;SDS011;26968;42.686;23.352;2023-01-28T03:31:02;15.45;;;8.45;;
41233;SDS011;26968;42.686;23.352;2023-01-28T03:33:58;13.00;;;7.75;;
41233;SDS011;26968;42.686;23.352;2023-01-28T03:36:44;13.95;;;8.48;;
41233;SDS011;26968;42.686;23.352;2023-01-28T03:39:23;14.18;;;9.38;;
41233;SDS011;26968;42.686;23.352;2023-01-28T03:41:58;12.15;;;8.00;;
41233;SDS011;26968;42.686;23.352;2023-01-28T03:44:24;15.02;;;9.07;;
41233;SDS011;26968;42.686;23.352;2023-01-28T03:47:08;14.07;;;8.98;;
41233;SDS011;26968;42.686;23.352;2023-01-28T03:49:37;15.93;;;10.25;;
41233;SDS011;26968;42.686;23.352;2023-01-28T03:52:06;22.95;;;9.48;;
41233;SDS011;26968;42.686;23.352;2023-01-28T03:54:33;15.70;;;9.38;;
41233;SDS011;26968;42.686;23.352;2023-01-28T03:56:58;15.07;;;9.48;;
41233;SDS011;26968;42.686;23.352;2023-01-28T03:59:24;17.00;;;9.40;;
41233;SDS011;26968;42.686;23.352;2023-01-28T04:01:51;14.05;;;8.65;;
41233;SDS011;26968;42.686;23.352;2023-01-28T04:04:17;16.90;;;9.93;;
41233;SDS011;26968;42.686;23.352;2023-01-28T04:06:51;15.52;;;9.50;;
41233;SDS011;26968;42.686;23.352;2023-01-28T04:09:19;14.80;;;9.45;;
41233;SDS011;26968;42.686;23.352;2023-01-28T04:11:45;13.93;;;9.25;;
41233;SDS011;26968;42.686;23.352;2023-01-28T04:14:11;14.43;;;9.07;;
41233;SDS011;26968;42.686;23.352;2023-01-28T04:16:36;15.25;;;8.68;;
41233;SDS011;26968;42.686;23.352;2023-01-28T04:19:02;14.43;;;8.73;;
41233;SDS011;26968;42.686;23.352;2023-01-28T04:21:27;18.63;;;9.52;;
41233;SDS011;26968;42.686;23.352;2023-01-28T04:23:53;18.50;;;10.18;;
41233;SDS011;26968;42.686;23.352;2023-01-28T04:26:18;19.27;;;10.38;;
41233;SDS011;26968;42.686;23.352;2023-01-28T04:28:43;17.52;;;10.45;;
41233;SDS011;26968;42.686;23.352;2023-01-28T04:31:09;16.40;;;10.15;;
41233;SDS011;26968;42.686;23.352;2023-01-28T04:33:34;17.05;;;9.23;;
41233;SDS011;26968;42.686;23.352;2023-01-28T04:35:59;15.20;;;9.10;;
41233;SDS011;26968;42.686;23.352;2023-01-28T04:38:25;17.80;;;9.73;;
41233;SDS011;26968;42.686;23.352;2023-01-28T04:40:51;13.02;;;8.57;;
41233;SDS011;26968;42.686;23.352;2023-01-28T04:43:17;14.52;;;9.38;;
41233;SDS011;26968;42.686;23.352;2023-01-28T04:45:44;17.40;;;8.75;;
41233;SDS011;26968;42.686;23.352;2023-01-28T04:48:11;15.77;;;8.35;;
41233;SDS011;26968;42.686;23.352;2023-01-28T04:50:37;14.98;;;9.35;;
41233;SDS011;26968;42.686;23.352;2023-01-28T04:53:02;18.95;;;8.70;;
41233;SDS011;26968;42.686;23.352;2023-01-28T04:55:27;16.23;;;10.32;;
41233;SDS011;26968;42.686;23.352;2023-01-28T04:57:53;15.80;;;9.23;;
41233;SDS011;26968;42.686;23.352;2023-01-28T05:00:18;13.88;;;9.25;;
41233;SDS011;26968;42.686;23.352;2023-01-28T05:02:44;14.75;;;8.88;;
41233;SDS011;26968;42.686;23.352;2023-01-28T05:05:09;19.23;;;9.50;;
41233;SDS011;26968;42.686;23.352;2023-01-28T05:07:35;13.90;;;8.68;;
41233;SDS011;26968;42.686;23.352;2023-01-28T05:10:00;12.25;;;8.13;;
41233;SDS011;26968;42.686;23.352;2023-01-28T05:12:26;16.13;;;9.68;;
41233;SDS011;26968;42.686;23.352;2023-01-28T05:14:51;14.55;;;9.13;;
41233;SDS011;26968;42.686;23.352;2023-01-28T05:17:17;13.32;;;8.60;;
41233;SDS011;26968;42.686;23.352;2023-01-28T05:19:42;17.33;;;9.48;;
41233;SDS011;26968;42.686;23.352;2023-01-28T05:22:08;32.22;;;13.85;;
41233;SDS011;26968;42.686;23.352;2023-01-28T05:24:33;15.43;;;9.30;;
41233;SDS011;26968;42.686;23.352;2023-01-28T05:26:59;17.17;;;10.15;;
41233;SDS011;26968;42.686;23.352;2023-01-28T05:29:24;16.85;;;8.73;;
41233;SDS011;26968;42.686;23.352;2023-01-28T05:31:49;16.50;;;10.80;;
41233;SDS011;26968;42.686;23.352;2023-01-28T05:34:15;15.75;;;9.52;;
41233;SDS011;26968;42.686;23.352;2023-01-28T05:36:40;16.23;;;9.85;;
41233;SDS011;26968;42.686;23.352;2023-01-28T05:39:06;16.30;;;9.27;;
41233;SDS011;26968;42.686;23.352;2023-01-28T05:41:32;15.25;;;9.63;;
41233;SDS011;26968;42.686;23.352;2023-01-28T05:43:58;17.70;;;9.40;;
41233;SDS011;26968;42.686;23.352;2023-01-28T05:46:23;17.85;;;10.25;;
41233;SDS011;26968;42.686;23.352;2023-01-28T05:48:51;20.40;;;10.05;;
41233;SDS011;26968;42.686;23.352;2023-01-28T05:51:17;16.88;;;9.43;;
41233;SDS011;26968;42.686;23.352;2023-01-28T05:53:42;18.00;;;10.68;;
41233;SDS011;26968;42.686;23.352;2023-01-28T05:56:08;18.65;;;10.32;;
41233;SDS011;26968;42.686;23.352;2023-01-28T05:58:33;17.77;;;9.88;;
41233;SDS011;26968;42.686;23.352;2023-01-28T06:00:59;15.82;;;9.52;;
41233;SDS011;26968;42.686;23.352;2023-01-28T06:03:24;17.00;;;10.50;;
41233;SDS011;26968;42.686;23.352;2023-01-28T06:05:50;18.60;;;10.60;;
41233;SDS011;26968;42.686;23.352;2023-01-28T06:08:15;17.50;;;10.00;;
41233;SDS011;26968;42.686;23.352;2023-01-28T06:10:40;16.52;;;10.13;;
41233;SDS011;26968;42.686;23.352;2023-01-28T06:13:06;16.55;;;10.15;;
41233;SDS011;26968;42.686;23.352;2023-01-28T06:15:31;16.15;;;10.52;;
41233;SDS011;26968;42.686;23.352;2023-01-28T06:17:57;18.42;;;10.75;;
41233;SDS011;26968;42.686;23.352;2023-01-28T06:20:22;18.63;;;11.38;;
41233;SDS011;26968;42.686;23.352;2023-01-28T06:22:51;18.58;;;10.70;;
41233;SDS011;26968;42.686;23.352;2023-01-28T06:25:17;19.40;;;10.90;;
41233;SDS011;26968;42.686;23.352;2023-01-28T06:27:42;18.95;;;10.90;;
41233;SDS011;26968;42.686;23.352;2023-01-28T06:30:08;17.52;;;10.48;;
41233;SDS011;26968;42.686;23.352;2023-01-28T06:32:35;16.80;;;10.13;;
41233;SDS011;26968;42.686;23.352;2023-01-28T06:35:00;18.92;;;11.05;;
41233;SDS011;26968;42.686;23.352;2023-01-28T06:37:26;15.25;;;9.50;;
41233;SDS011;26968;42.686;23.352;2023-01-28T06:39:51;17.15;;;10.23;;
41233;SDS011;26968;42.686;23.352;2023-01-28T06:42:17;21.92;;;11.50;;
41233;SDS011;26968;42.686;23.352;2023-01-28T06:44:42;17.13;;;10.60;;
41233;SDS011;26968;42.686;23.352;2023-01-28T06:47:08;16.35;;;10.73;;
41233;SDS011;26968;42.686;23.352;2023-01-28T06:49:35;17.50;;;10.57;;
41233;SDS011;26968;42.686;23.352;2023-01-28T06:52:01;18.10;;;9.63;;
41233;SDS011;26968;42.686;23.352;2023-01-28T06:54:26;17.10;;;10.20;;
41233;SDS011;26968;42.686;23.352;2023-01-28T06:56:52;21.60;;;11.90;;
41233;SDS011;26968;42.686;23.352;2023-01-28T06:59:17;18.98;;;11.70;;
41233;SDS011;26968;42.686;23.352;2023-01-28T07:01:42;18.67;;;10.82;;
41233;SDS011;26968;42.686;23.352;2023-01-28T07:04:08;18.55;;;10.18;;
41233;SDS011;26968;42.686;23.352;2023-01-28T07:06:35;21.20;;;12.15;;
41233;SDS011;26968;42.686;23.352;2023-01-28T07:09:00;21.48;;;11.68;;
41233;SDS011;26968;42.686;23.352;2023-01-28T07:11:26;24.80;;;12.82;;
41233;SDS011;26968;42.686;23.352;2023-01-28T07:13:52;22.08;;;12.65;;
41233;SDS011;26968;42.686;23.352;2023-01-28T07:16:17;23.98;;;12.77;;
41233;SDS011;26968;42.686;23.352;2023-01-28T07:18:43;22.98;;;12.45;;
41233;SDS011;26968;42.686;23.352;2023-01-28T07:21:08;27.10;;;13.32;;
41233;SDS011;26968;42.686;23.352;2023-01-28T07:23:33;23.45;;;12.20;;
41233;SDS011;26968;42.686;23.352;2023-01-28T07:26:00;23.83;;;13.00;;
41233;SDS011;26968;42.686;23.352;2023-01-28T07:28:26;22.75;;;12.93;;
41233;SDS011;26968;42.686;23.352;2023-01-28T07:30:51;20.52;;;12.00;;
41233;SDS011;26968;42.686;23.352;2023-01-28T07:33:17;22.27;;;11.18;;
41233;SDS011;26968;42.686;23.352;2023-01-28T07:35:43;19.60;;;11.40;;
41233;SDS011;26968;42.686;23.352;2023-01-28T07:38:09;18.27;;;11.50;;
41233;SDS011;26968;42.686;23.352;2023-01-28T07:40:35;26.67;;;13.05;;
41233;SDS011;26968;42.686;23.352;2023-01-28T07:43:00;23.70;;;12.07;;
41233;SDS011;26968;42.686;23.352;2023-01-28T07:45:26;24.38;;;12.57;;
41233;SDS011;26968;42.686;23.352;2023-01-28T07:47:58;22.42;;;12.60;;
41233;SDS011;26968;42.686;23.352;2023-01-28T07:50:28;20.38;;;11.75;;
41233;SDS011;26968;42.686;23.352;2023-01-28T07:52:55;25.40;;;13.00;;
41233;SDS011;26968;42.686;23.352;2023-01-28T07:55:21;27.50;;;13.07;;
41233;SDS011;26968;42.686;23.352;2023-01-28T07:57:51;21.73;;;12.43;;
41233;SDS011;26968;42.686;23.352;2023-01-28T08:00:18;22.38;;;12.30;;
41233;SDS011;26968;42.686;23.352;2023-01-28T08:02:45;22.52;;;12.82;;
41233;SDS011;26968;42.686;23.352;2023-01-28T08:05:20;25.58;;;14.45;;
41233;SDS011;26968;42.686;23.352;2023-01-28T08:07:46;24.92;;;13.60;;
41233;SDS011;26968;42.686;23.352;2023-01-28T08:10:13;23.80;;;13.30;;
41233;SDS011;26968;42.686;23.352;2023-01-28T08:12:41;23.33;;;13.48;;
41233;SDS011;26968;42.686;23.352;2023-01-28T08:15:15;24.45;;;13.05;;
41233;SDS011;26968;42.686;23.352;2023-01-28T08:17:40;23.70;;;13.27;;
41233;SDS011;26968;42.686;23.352;2023-01-28T08:20:06;32.65;;;15.18;;
41233;SDS011;26968;42.686;23.352;2023-01-28T08:22:31;26.75;;;13.30;;
41233;SDS011;26968;42.686;23.352;2023-01-28T08:24:57;20.35;;;11.85;;
41233;SDS011;26968;42.686;23.352;2023-01-28T08:27:22;24.35;;;13.40;;
41233;SDS011;26968;42.686;23.352;2023-01-28T08:29:48;22.77;;;13.73;;
41233;SDS011;26968;42.686;23.352;2023-01-28T08:32:13;23.60;;;12.55;;
41233;SDS011;26968;42.686;23.352;2023-01-28T08:34:38;29.13;;;13.38;;
41233;SDS011;26968;42.686;23.352;2023-01-28T08:37:04;20.27;;;11.07;;
41233;SDS011;26968;42.686;23.352;2023-01-28T08:39:30;20.45;;;11.90;;
41233;SDS011;26968;42.686;23.352;2023-01-28T08:41:55;22.58;;;12.18;;
41233;SDS011;26968;42.686;23.352;2023-01-28T08:44:21;16.92;;;10.25;;
41233;SDS011;26968;42.686;23.352;2023-01-28T08:46:46;16.23;;;10.27;;
41233;SDS011;26968;42.686;23.352;2023-01-28T08:49:11;19.63;;;11.35;;
41233;SDS011;26968;42.686;23.352;2023-01-28T08:51:37;22.77;;;11.23;;
41233;SDS011;26968;42.686;23.352;2023-01-28T08:54:02;22.98;;;12.93;;
41233;SDS011;26968;42.686;23.352;2023-01-28T08:56:27;35.70;;;13.45;;
41233;SDS011;26968;42.686;23.352;2023-01-28T08:58:54;31.80;;;11.77;;
41233;SDS011;26968;42.686;23.352;2023-01-28T09:01:19;24.98;;;11.57;;
41233;SDS011;26968;42.686;23.352;2023-01-28T09:03:45;23.52;;;11.95;;
41233;SDS011;26968;42.686;23.352;2023-01-28T09:06:10;23.20;;;11.85;;
41233;SDS011;26968;42.686;23.352;2023-01-28T09:08:36;18.38;;;11.13;;
41233;SDS011;26968;42.686;23.352;2023-01-28T09:11:01;17.45;;;10.45;;
41233;SDS011;26968;42.686;23.352;2023-01-28T09:13:26;17.67;;;9.70;;
41233;SDS011;26968;42.686;23.352;2023-01-28T09:15:52;21.15;;;10.73;;
41233;SDS011;26968;42.686;23.352;2023-01-28T09:18:18;22.58;;;11.15;;
41233;SDS011;26968;42.686;23.352;2023-01-28T09:20:44;22.92;;;11.98;;
41233;SDS011;26968;42.686;23.352;2023-01-28T09:23:09;22.08;;;11.82;;
41233;SDS011;26968;42.686;23.352;2023-01-28T09:25:35;25.52;;;11.82;;
41233;SDS011;26968;42.686;23.352;2023-01-28T09:28:01;23.92;;;11.45;;
41233;SDS011;26968;42.686;23.352;2023-01-28T09:30:27;21.13;;;11.38;;
41233;SDS011;26968;42.686;23.352;2023-01-28T09:32:53;24.88;;;12.45;;
41233;SDS011;26968;42.686;23.352;2023-01-28T09:35:20;21.42;;;11.45;;
41233;SDS011;26968;42.686;23.352;2023-01-28T09:37:46;24.23;;;13.18;;
41233;SDS011;26968;42.686;23.352;2023-01-28T09:40:32;23.23;;;12.60;;
41233;SDS011;26968;42.686;23.352;2023-01-28T09:45:33;25.27;;;13.80;;
41233;SDS011;26968;42.686;23.352;2023-01-28T09:48:04;25.05;;;13.45;;
41233;SDS011;26968;42.686;23.352;2023-01-28T09:50:37;26.13;;;13.65;;
41233;SDS011;26968;42.686;23.352;2023-01-28T09:53:25;25.88;;;15.07;;
41233;SDS011;26968;42.686;23.352;2023-01-28T09:58:30;26.55;;;13.77;;
41233;SDS011;26968;42.686;23.352;2023-01-28T10:00:58;26.52;;;13.80;;
41233;SDS011;26968;42.686;23.352;2023-01-28T10:17:30;25.20;;;14.10;;
41233;SDS011;26968;42.686;23.352;2023-01-28T10:20:02;23.42;;;14.15;;
41233;SDS011;26968;42.686;23.352;2023-01-28T10:23:09;30.60;;;15.65;;
41233;SDS011;26968;42.686;23.352;2023-01-28T10:25:42;26.73;;;14.77;;
41233;SDS011;26968;42.686;23.352;2023-01-28T10:28:26;30.83;;;15.05;;
41233;SDS011;26968;42.686;23.352;2023-01-28T10:30:53;27.17;;;14.55;;
41233;SDS011;26968;42.686;23.352;2023-01-28T10:33:29;28.83;;;15.55;;
41233;SDS011;26968;42.686;23.352;2023-01-28T10:35:59;26.48;;;14.98;;
41233;SDS011;26968;42.686;23.352;2023-01-28T10:38:25;28.27;;;15.32;;
41233;SDS011;26968;42.686;23.352;2023-01-28T10:40:52;26.75;;;14.52;;
41233;SDS011;26968;42.686;23.352;2023-01-28T10:43:22;30.00;;;15.63;;
41233;SDS011;26968;42.686;23.352;2023-01-28T10:48:44;27.42;;;14.35;;
41233;SDS011;26968;42.686;23.352;2023-01-28T10:51:11;26.88;;;14.65;;
41233;SDS011;26968;42.686;23.352;2023-01-28T10:56:13;26.50;;;13.68;;
41233;SDS011;26968;42.686;23.352;2023-01-28T11:04:31;28.75;;;14.60;;
41233;SDS011;26968;42.686;23.352;2023-01-28T11:07:05;23.58;;;13.80;;
41233;SDS011;26968;42.686;23.352;2023-01-28T11:09:43;23.08;;;12.63;;
41233;SDS011;26968;42.686;23.352;2023-01-28T11:12:23;22.40;;;13.32;;
41233;SDS011;26968;42.686;23.352;2023-01-28T11:14:55;27.00;;;13.30;;
41233;SDS011;26968;42.686;23.352;2023-01-28T11:17:23;26.33;;;13.57;;
41233;SDS011;26968;42.686;23.352;2023-01-28T11:19:55;27.75;;;14.27;;
41233;SDS011;26968;42.686;23.352;2023-01-28T11:25:01;24.50;;;13.07;;
41233;SDS011;26968;42.686;23.352;2023-01-28T11:27:29;23.83;;;12.93;;
41233;SDS011;26968;42.686;23.352;2023-01-28T11:29:57;20.05;;;12.27;;
41233;SDS011;26968;42.686;23.352;2023-01-28T11:32:27;20.92;;;12.75;;
41233;SDS011;26968;42.686;23.352;2023-01-28T11:34:55;27.00;;;13.95;;
41233;SDS011;26968;42.686;23.352;2023-01-28T11:37:23;28.05;;;13.60;;
41233;SDS011;26968;42.686;23.352;2023-01-28T11:40:00;22.90;;;12.32;;
41233;SDS011;26968;42.686;23.352;2023-01-28T11:42:26;23.67;;;13.13;;
41233;SDS011;26968;42.686;23.352;2023-01-28T11:44:52;21.88;;;11.65;;
41233;SDS011;26968;42.686;23.352;2023-01-28T11:47:23;19.85;;;10.68;;
41233;SDS011;26968;42.686;23.352;2023-01-28T11:50:04;23.48;;;13.88;;
41233;SDS011;26968;42.686;23.352;2023-01-28T11:55:40;22.88;;;12.02;;
41233;SDS011;26968;42.686;23.352;2023-01-28T11:58:35;25.88;;;12.48;;
41233;SDS011;26968;42.686;23.352;2023-01-28T12:06:36;27.08;;;13.45;;
41233;SDS011;26968;42.686;23.352;2023-01-28T12:20:14;18.92;;;11.88;;
41233;SDS011;26968;42.686;23.352;2023-01-28T12:23:00;22.17;;;12.07;;
41233;SDS011;26968;42.686;23.352;2023-01-28T12:34:19;28.45;;;13.65;;
41233;SDS011;26968;42.686;23.352;2023-01-28T12:36:55;30.00;;;12.65;;
41233;SDS011;26968;42.686;23.352;2023-01-28T12:42:25;19.27;;;12.38;;
41233;SDS011;26968;42.686;23.352;2023-01-28T12:51:06;26.55;;;13.48;;
41233;SDS011;26968;42.686;23.352;2023-01-28T12:56:36;20.73;;;12.80;;
41233;SDS011;26968;42.686;23.352;2023-01-28T12:59:11;20.95;;;12.82;;
41233;SDS011;26968;42.686;23.352;2023-01-28T13:04:59;27.42;;;13.80;;
41233;SDS011;26968;42.686;23.352;2023-01-28T13:07:05;21.30;;;11.57;;
41233;SDS011;26968;42.686;23.352;2023-01-28T13:09:32;20.83;;;13.18;;
41233;SDS011;26968;42.686;23.352;2023-01-28T13:12:01;21.20;;;13.18;;
41233;SDS011;26968;42.686;23.352;2023-01-28T13:14:30;34.53;;;15.45;;
41233;SDS011;26968;42.686;23.352;2023-01-28T13:17:10;25.58;;;14.35;;
41233;SDS011;26968;42.686;23.352;2023-01-28T13:19:48;31.13;;;14.50;;
41233;SDS011;26968;42.686;23.352;2023-01-28T13:22:35;31.48;;;14.57;;
41233;SDS011;26968;42.686;23.352;2023-01-28T13:28:04;33.97;;;16.85;;
41233;SDS011;26968;42.686;23.352;2023-01-28T13:30:34;30.33;;;15.93;;
41233;SDS011;26968;42.686;23.352;2023-01-28T13:33:28;24.70;;;14.00;;
41233;SDS011;26968;42.686;23.352;2023-01-28T13:35:56;34.47;;;15.38;;
41233;SDS011;26968;42.686;23.352;2023-01-28T13:38:25;25.23;;;13.75;;
41233;SDS011;26968;42.686;23.352;2023-01-28T13:45:57;23.85;;;13.57;;
41233;SDS011;26968;42.686;23.352;2023-01-28T13:51:31;20.75;;;11.60;;
41233;SDS011;26968;42.686;23.352;2023-01-28T13:53:58;19.42;;;11.93;;
41233;SDS011;26968;42.686;23.352;2023-01-28T13:56:29;22.27;;;12.05;;
41233;SDS011;26968;42.686;23.352;2023-01-28T14:07:09;23.70;;;13.60;;
41233;SDS011;26968;42.686;23.352;2023-01-28T14:09:58;27.52;;;14.98;;
41233;SDS011;26968;42.686;23.352;2023-01-28T14:15:31;22.95;;;12.85;;
41233;SDS011;26968;42.686;23.352;2023-01-28T14:18:29;25.63;;;13.43;;
41233;SDS011;26968;42.686;23.352;2023-01-28T14:21:00;21.95;;;12.32;;
41233;SDS011;26968;42.686;23.352;2023-01-28T14:23:33;25.90;;;13.63;;
41233;SDS011;26968;42.686;23.352;2023-01-28T14:26:04;20.52;;;12.27;;
41233;SDS011;26968;42.686;23.352;2023-01-28T14:28:43;22.63;;;13.35;;
41233;SDS011;26968;42.686;23.352;2023-01-28T14:37:00;24.33;;;14.30;;
41233;SDS011;26968;42.686;23.352;2023-01-28T14:39:30;25.45;;;13.25;;
41233;SDS011;26968;42.686;23.352;2023-01-28T14:44:28;26.73;;;13.23;;
41233;SDS011;26968;42.686;23.352;2023-01-28T14:55:22;25.40;;;13.05;;
41233;SDS011;26968;42.686;23.352;2023-01-28T14:57:51;21.27;;;13.23;;
41233;SDS011;26968;42.686;23.352;2023-01-28T15:02:49;20.92;;;12.50;;
41233;SDS011;26968;42.686;23.352;2023-01-28T15:05:22;26.38;;;12.55;;
41233;SDS011;26968;42.686;23.352;2023-01-28T15:07:49;19.08;;;11.57;;
41233;SDS011;26968;42.686;23.352;2023-01-28T15:10:17;18.02;;;10.60;;
41233;SDS011;26968;42.686;23.352;2023-01-28T15:12:44;22.65;;;12.18;;
41233;SDS011;26968;42.686;23.352;2023-01-28T15:15:17;23.00;;;12.23;;
41233;SDS011;26968;42.686;23.352;2023-01-28T15:17:48;24.08;;;11.88;;
41233;SDS011;26968;42.686;23.352;2023-01-28T15:20:18;20.33;;;12.38;;
41233;SDS011;26968;42.686;23.352;2023-01-28T15:22:47;26.10;;;13.40;;
41233;SDS011;26968;42.686;23.352;2023-01-28T15:25:17;21.48;;;12.63;;
41233;SDS011;26968;42.686;23.352;2023-01-28T15:27:47;21.35;;;12.93;;
41233;SDS011;26968;42.686;23.352;2023-01-28T15:30:19;23.30;;;13.10;;
41233;SDS011;26968;42.686;23.352;2023-01-28T15:32:55;28.20;;;13.50;;
41233;SDS011;26968;42.686;23.352;2023-01-28T15:35:23;20.77;;;12.43;;
41233;SDS011;26968;42.686;23.352;2023-01-28T15:37:48;21.20;;;12.45;;
41233;SDS011;26968;42.686;23.352;2023-01-28T15:40:16;22.55;;;10.73;;
41233;SDS011;26968;42.686;23.352;2023-01-28T15:42:44;19.75;;;11.35;;
41233;SDS011;26968;42.686;23.352;2023-01-28T15:45:14;27.50;;;14.23;;
41233;SDS011;26968;42.686;23.352;2023-01-28T15:47:41;23.17;;;12.73;;
41233;SDS011;26968;42.686;23.352;2023-01-28T15:50:07;24.40;;;12.45;;
41233;SDS011;26968;42.686;23.352;2023-01-28T15:52:40;21.30;;;12.20;;
41233;SDS011;26968;42.686;23.352;2023-01-28T15:55:07;20.27;;;12.13;;
41233;SDS011;26968;42.686;23.352;2023-01-28T15:57:53;30.92;;;14.13;;
41233;SDS011;26968;42.686;23.352;2023-01-28T16:00:19;18.45;;;11.05;;
41233;SDS011;26968;42.686;23.352;2023-01-28T16:02:49;20.70;;;11.75;;
41233;SDS011;26968;42.686;23.352;2023-01-28T16:05:54;27.25;;;13.30;;
41233;SDS011;26968;42.686;23.352;2023-01-28T16:08:26;22.88;;;12.55;;
41233;SDS011;26968;42.686;23.352;2023-01-28T16:10:58;25.48;;;13.45;;
41233;SDS011;26968;42.686;23.352;2023-01-28T16:13:27;20.52;;;12.00;;
41233;SDS011;26968;42.686;23.352;2023-01-28T16:15:56;21.75;;;11.00;;
41233;SDS011;26968;42.686;23.352;2023-01-28T16:21:11;18.95;;;11.00;;
41233;SDS011;26968;42.686;23.352;2023-01-28T16:23:49;19.30;;;10.88;;
41233;SDS011;26968;42.686;23.352;2023-01-28T16:26:24;19.23;;;12.27;;
41233;SDS011;26968;42.686;23.352;2023-01-28T16:28:51;17.55;;;10.70;;
41233;SDS011;26968;42.686;23.352;2023-01-28T16:31:17;20.73;;;12.05;;
41233;SDS011;26968;42.686;23.352;2023-01-28T16:33:43;24.33;;;13.40;;
41233;SDS011;26968;42.686;23.352;2023-01-28T16:36:10;28.55;;;13.13;;
41233;SDS011;26968;42.686;23.352;2023-01-28T16:38:37;19.70;;;11.27;;
41233;SDS011;26968;42.686;23.352;2023-01-28T16:41:03;18.65;;;10.73;;
41233;SDS011;26968;42.686;23.352;2023-01-28T16:43:29;28.13;;;12.20;;
41233;SDS011;26968;42.686;23.352;2023-01-28T16:45:54;23.52;;;12.52;;
41233;SDS011;26968;42.686;23.352;2023-01-28T16:48:20;18.10;;;11.63;;
41233;SDS011;26968;42.686;23.352;2023-01-28T16:50:45;26.67;;;14.65;;
41233;SDS011;26968;42.686;23.352;2023-01-28T16:53:16;19.35;;;11.55;;